sensor_id;sensor_type;location;lat;lon;timestamp;temperature;humidity
8541;DHT22;4308;51.294;6.590;2022-11-14T19:28:26;6.70;99.90
8541;DHT22;4308;51.294;6.590;2022-11-14T19:30:59;7.00;99.90
8541;DHT22;4308;51.294;6.590;2022-11-14T19:33:26;6.90;99.90
8541;DHT22;4308;51.294;6.590;2022-11-14T19:35:54;6.80;99.90
8541;DHT22;4308;51.294;6.590;2022-11-14T19:38:21;6.80;99.90
8541;DHT22;4308;51.294;6.590;2022-11-14T19:40:48;6.70;99.90
8541;DHT22;4308;51.294;6.590;2022-11-14T19:43:16;6.70;99.90
8541;DHT22;4308;51.294;6.590;2022-11-14T19:45:44;6.80;99.90
8541;DHT22;4308;51.294;6.590;2022-11-14T19:48:11;6.70;99.90
8541;DHT22;4308;51.294;6.590;2022-11-14T19:50:40;6.60;99.90
8541;DHT22;4308;51.294;6.590;2022-11-14T19:53:07;6.70;99.90
8541;DHT22;4308;51.294;6.590;2022-11-14T19:55:34;6.50;99.90
8541;DHT22;4308;51.294;6.590;2022-11-14T19:58:01;6.60;99.90
8541;DHT22;4308;51.294;6.590;2022-11-14T20:00:29;6.60;99.90
8541;DHT22;4308;51.294;6.590;2022-11-14T20:02:56;6.50;99.90
8541;DHT22;4308;51.294;6.590;2022-11-14T20:05:23;6.40;99.90
8541;DHT22;4308;51.294;6.590;2022-11-14T20:07:50;6.40;99.90
8541;DHT22;4308;51.294;6.590;2022-11-14T20:10:19;6.50;99.90
8541;DHT22;4308;51.294;6.590;2022-11-14T20:12:46;6.70;99.90
8541;DHT22;4308;51.294;6.590;2022-11-14T20:15:14;6.90;99.90
8541;DHT22;4308;51.294;6.590;2022-11-14T20:17:41;7.10;99.90
8541;DHT22;4308;51.294;6.590;2022-11-14T20:22:36;7.50;99.90
8541;DHT22;4308;51.294;6.590;2022-11-14T20:25:03;7.60;99.90
8541;DHT22;4308;51.294;6.590;2022-11-14T20:27:31;6.90;99.90
8541;DHT22;4308;51.294;6.590;2022-11-14T20:32:26;7.80;99.90
8541;DHT22;4308;51.294;6.590;2022-11-14T20:39:50;8.00;99.90
8541;DHT22;4308;51.294;6.590;2022-11-14T20:49:42;7.70;99.90
8541;DHT22;4308;51.294;6.590;2022-11-14T20:52:09;8.20;99.90
8541;DHT22;4308;51.294;6.590;2022-11-14T20:57:05;8.20;99.90
8541;DHT22;4308;51.294;6.590;2022-11-14T20:59:32;8.40;99.90
8541;DHT22;4308;51.294;6.590;2022-11-14T21:01:59;8.50;99.90
8541;DHT22;4308;51.294;6.590;2022-11-14T21:04:27;8.60;99.90
8541;DHT22;4308;51.294;6.590;2022-11-14T21:11:49;8.20;99.90
8541;DHT22;4308;51.294;6.590;2022-11-14T21:14:17;8.80;99.90
8541;DHT22;4308;51.294;6.590;2022-11-14T21:16:44;8.80;99.90
8541;DHT22;4308;51.294;6.590;2022-11-14T21:21:40;8.80;99.90
8541;DHT22;4308;51.294;6.590;2022-11-14T21:24:07;8.80;99.90
8541;DHT22;4308;51.294;6.590;2022-11-14T21:56:34;9.20;99.90
8541;DHT22;4308;51.294;6.590;2022-11-14T21:59:03;9.30;99.90
8541;DHT22;4308;51.294;6.590;2022-11-14T22:01:34;9.20;99.90
8541;DHT22;4308;51.294;6.590;2022-11-14T22:04:02;9.20;99.90
8541;DHT22;4308;51.294;6.590;2022-11-14T22:06:29;9.20;99.90
8541;DHT22;4308;51.294;6.590;2022-11-14T22:08:57;9.20;99.90
8541;DHT22;4308;51.294;6.590;2022-11-14T22:11:24;9.30;99.90
8541;DHT22;4308;51.294;6.590;2022-11-14T22:13:51;9.30;99.90
8541;DHT22;4308;51.294;6.590;2022-11-14T22:16:18;9.30;99.90
8541;DHT22;4308;51.294;6.590;2022-11-14T22:18:46;9.30;99.90
8541;DHT22;4308;51.294;6.590;2022-11-14T22:21:13;9.30;99.90
8541;DHT22;4308;51.294;6.590;2022-11-14T22:23:40;9.30;99.90
8541;DHT22;4308;51.294;6.590;2022-11-14T22:26:08;9.30;99.90
8541;DHT22;4308;51.294;6.590;2022-11-14T22:28:35;9.40;99.90
8541;DHT22;4308;51.294;6.590;2022-11-14T22:31:11;9.40;99.90
8541;DHT22;4308;51.294;6.590;2022-11-14T22:33:40;9.40;99.90
8541;DHT22;4308;51.294;6.590;2022-11-14T22:36:18;9.50;99.90
8541;DHT22;4308;51.294;6.590;2022-11-14T22:38:46;9.50;99.90
8541;DHT22;4308;51.294;6.590;2022-11-14T22:41:28;9.50;99.90
8541;DHT22;4308;51.294;6.590;2022-11-14T22:44:00;9.50;99.90
8541;DHT22;4308;51.294;6.590;2022-11-14T22:46:28;9.50;99.90
8541;DHT22;4308;51.294;6.590;2022-11-14T22:48:55;9.50;99.90
8541;DHT22;4308;51.294;6.590;2022-11-14T22:51:24;9.60;99.90
8541;DHT22;4308;51.294;6.590;2022-11-14T22:53:54;9.60;99.90
8541;DHT22;4308;51.294;6.590;2022-11-14T22:56:24;9.60;99.90
8541;DHT22;4308;51.294;6.590;2022-11-14T22:58:51;9.60;99.90
8541;DHT22;4308;51.294;6.590;2022-11-14T23:03:55;9.70;99.90
8541;DHT22;4308;51.294;6.590;2022-11-14T23:06:23;9.70;99.90
8541;DHT22;4308;51.294;6.590;2022-11-14T23:08:51;9.70;99.90
8541;DHT22;4308;51.294;6.590;2022-11-14T23:11:21;9.70;99.90
8541;DHT22;4308;51.294;6.590;2022-11-14T23:24:00;9.90;99.90
8541;DHT22;4308;51.294;6.590;2022-11-14T23:41:21;9.90;99.90
8541;DHT22;4308;51.294;6.590;2022-11-14T23:43:49;9.90;99.90
8541;DHT22;4308;51.294;6.590;2022-11-14T23:48:44;9.90;99.90
8541;DHT22;4308;51.294;6.590;2022-11-14T23:51:11;10.10;99.90
8541;DHT22;4308;51.294;6.590;2022-11-14T23:53:39;10.10;99.90
